sensor_id;sensor_type;location;lat;lon;timestamp;P1;durP1;ratioP1;P2;durP2;ratioP2
71475;SDS011;59286;59.274;17.974;2024-02-28T00:01:36;9.80;;;8.23;;
71475;SDS011;59286;59.274;17.974;2024-02-28T00:04:02;8.40;;;7.47;;
71475;SDS011;59286;59.274;17.974;2024-02-28T00:06:27;7.65;;;6.85;;
71475;SDS011;59286;59.274;17.974;2024-02-28T00:08:52;7.13;;;6.43;;
71475;SDS011;59286;59.274;17.974;2024-02-28T00:11:19;7.22;;;6.53;;
71475;SDS011;59286;59.274;17.974;2024-02-28T00:13:45;6.70;;;6.10;;
71475;SDS011;59286;59.274;17.974;2024-02-28T00:16:10;7.30;;;6.60;;
71475;SDS011;59286;59.274;17.974;2024-02-28T00:18:36;7.10;;;6.15;;
71475;SDS011;59286;59.274;17.974;2024-02-28T00:21:02;6.15;;;5.55;;
71475;SDS011;59286;59.274;17.974;2024-02-28T00:23:28;6.95;;;6.25;;
71475;SDS011;59286;59.274;17.974;2024-02-28T00:25:54;7.68;;;6.93;;
71475;SDS011;59286;59.274;17.974;2024-02-28T00:28:19;7.10;;;6.40;;
71475;SDS011;59286;59.274;17.974;2024-02-28T00:30:45;7.40;;;6.70;;
71475;SDS011;59286;59.274;17.974;2024-02-28T00:33:10;7.65;;;6.85;;
71475;SDS011;59286;59.274;17.974;2024-02-28T00:35:35;7.85;;;7.03;;
71475;SDS011;59286;59.274;17.974;2024-02-28T00:38:01;8.07;;;5.82;;
71475;SDS011;59286;59.274;17.974;2024-02-28T00:40:26;6.60;;;5.68;;
71475;SDS011;59286;59.274;17.974;2024-02-28T00:42:53;7.28;;;5.78;;
71475;SDS011;59286;59.274;17.974;2024-02-28T00:45:18;5.93;;;5.40;;
71475;SDS011;59286;59.274;17.974;2024-02-28T00:47:44;6.45;;;5.65;;
71475;SDS011;59286;59.274;17.974;2024-02-28T00:50:09;6.35;;;5.75;;
71475;SDS011;59286;59.274;17.974;2024-02-28T00:52:36;6.85;;;5.82;;
71475;SDS011;59286;59.274;17.974;2024-02-28T00:55:01;5.82;;;5.15;;
71475;SDS011;59286;59.274;17.974;2024-02-28T00:57:28;7.03;;;5.80;;
71475;SDS011;59286;59.274;17.974;2024-02-28T00:59:53;7.28;;;5.03;;
71475;SDS011;59286;59.274;17.974;2024-02-28T01:02:19;5.10;;;4.60;;
71475;SDS011;59286;59.274;17.974;2024-02-28T01:04:45;4.93;;;4.43;;
71475;SDS011;59286;59.274;17.974;2024-02-28T01:07:11;5.85;;;5.25;;
71475;SDS011;59286;59.274;17.974;2024-02-28T01:09:36;6.13;;;5.28;;
71475;SDS011;59286;59.274;17.974;2024-02-28T01:12:01;5.40;;;4.90;;
71475;SDS011;59286;59.274;17.974;2024-02-28T01:14:27;5.18;;;4.68;;
71475;SDS011;59286;59.274;17.974;2024-02-28T01:16:52;5.45;;;4.40;;
71475;SDS011;59286;59.274;17.974;2024-02-28T01:19:18;4.97;;;4.53;;
71475;SDS011;59286;59.274;17.974;2024-02-28T01:21:43;5.65;;;4.93;;
71475;SDS011;59286;59.274;17.974;2024-02-28T01:24:08;5.00;;;4.50;;
71475;SDS011;59286;59.274;17.974;2024-02-28T01:26:34;4.85;;;4.25;;
71475;SDS011;59286;59.274;17.974;2024-02-28T01:28:59;4.75;;;4.35;;
71475;SDS011;59286;59.274;17.974;2024-02-28T01:31:25;5.25;;;4.40;;
71475;SDS011;59286;59.274;17.974;2024-02-28T01:33:50;6.18;;;4.22;;
71475;SDS011;59286;59.274;17.974;2024-02-28T01:36:16;5.28;;;4.78;;
71475;SDS011;59286;59.274;17.974;2024-02-28T01:38:41;6.60;;;4.85;;
71475;SDS011;59286;59.274;17.974;2024-02-28T01:41:06;6.05;;;5.00;;
71475;SDS011;59286;59.274;17.974;2024-02-28T01:43:32;6.63;;;5.65;;
71475;SDS011;59286;59.274;17.974;2024-02-28T01:45:59;6.22;;;5.43;;
71475;SDS011;59286;59.274;17.974;2024-02-28T01:48:28;5.30;;;4.68;;
71475;SDS011;59286;59.274;17.974;2024-02-28T01:50:54;5.45;;;4.95;;
71475;SDS011;59286;59.274;17.974;2024-02-28T01:53:20;6.25;;;5.13;;
71475;SDS011;59286;59.274;17.974;2024-02-28T01:55:45;5.72;;;5.15;;
71475;SDS011;59286;59.274;17.974;2024-02-28T01:58:12;8.32;;;5.13;;
71475;SDS011;59286;59.274;17.974;2024-02-28T02:00:38;5.57;;;5.07;;
71475;SDS011;59286;59.274;17.974;2024-02-28T02:03:04;4.82;;;4.35;;
71475;SDS011;59286;59.274;17.974;2024-02-28T02:05:30;6.03;;;5.43;;
71475;SDS011;59286;59.274;17.974;2024-02-28T02:07:56;6.03;;;5.43;;
71475;SDS011;59286;59.274;17.974;2024-02-28T02:10:23;6.05;;;5.53;;
71475;SDS011;59286;59.274;17.974;2024-02-28T02:12:50;5.50;;;4.78;;
71475;SDS011;59286;59.274;17.974;2024-02-28T02:15:15;5.72;;;5.13;;
71475;SDS011;59286;59.274;17.974;2024-02-28T02:17:40;5.47;;;4.97;;
71475;SDS011;59286;59.274;17.974;2024-02-28T02:20:06;6.07;;;5.13;;
71475;SDS011;59286;59.274;17.974;2024-02-28T02:22:36;6.10;;;5.50;;
71475;SDS011;59286;59.274;17.974;2024-02-28T02:25:03;5.57;;;4.53;;
71475;SDS011;59286;59.274;17.974;2024-02-28T02:27:29;5.55;;;4.65;;
71475;SDS011;59286;59.274;17.974;2024-02-28T02:29:54;7.15;;;6.00;;
71475;SDS011;59286;59.274;17.974;2024-02-28T02:32:19;5.60;;;5.00;;
71475;SDS011;59286;59.274;17.974;2024-02-28T02:34:45;5.80;;;5.20;;
71475;SDS011;59286;59.274;17.974;2024-02-28T02:37:10;5.55;;;5.05;;
71475;SDS011;59286;59.274;17.974;2024-02-28T02:39:36;6.22;;;5.63;;
71475;SDS011;59286;59.274;17.974;2024-02-28T02:42:01;4.80;;;4.30;;
71475;SDS011;59286;59.274;17.974;2024-02-28T02:44:26;5.20;;;4.60;;
71475;SDS011;59286;59.274;17.974;2024-02-28T02:46:52;4.97;;;4.57;;
71475;SDS011;59286;59.274;17.974;2024-02-28T02:49:17;6.15;;;4.63;;
71475;SDS011;59286;59.274;17.974;2024-02-28T02:51:43;4.97;;;4.47;;
71475;SDS011;59286;59.274;17.974;2024-02-28T02:54:09;4.50;;;4.10;;
71475;SDS011;59286;59.274;17.974;2024-02-28T02:56:35;4.97;;;4.45;;
71475;SDS011;59286;59.274;17.974;2024-02-28T02:59:01;5.28;;;4.78;;
71475;SDS011;59286;59.274;17.974;2024-02-28T03:01:27;5.40;;;4.90;;
71475;SDS011;59286;59.274;17.974;2024-02-28T03:03:52;5.55;;;4.90;;
71475;SDS011;59286;59.274;17.974;2024-02-28T03:06:17;5.65;;;5.15;;
71475;SDS011;59286;59.274;17.974;2024-02-28T03:08:43;5.13;;;4.63;;
71475;SDS011;59286;59.274;17.974;2024-02-28T03:11:08;4.20;;;3.80;;
71475;SDS011;59286;59.274;17.974;2024-02-28T03:13:34;5.35;;;4.85;;
71475;SDS011;59286;59.274;17.974;2024-02-28T03:15:59;4.80;;;4.40;;
71475;SDS011;59286;59.274;17.974;2024-02-28T03:18:25;4.85;;;4.35;;
71475;SDS011;59286;59.274;17.974;2024-02-28T03:20:50;4.60;;;4.18;;
71475;SDS011;59286;59.274;17.974;2024-02-28T03:23:15;4.30;;;3.90;;
71475;SDS011;59286;59.274;17.974;2024-02-28T03:25:41;4.22;;;3.90;;
71475;SDS011;59286;59.274;17.974;2024-02-28T03:28:06;4.50;;;3.75;;
71475;SDS011;59286;59.274;17.974;2024-02-28T03:30:31;4.50;;;4.05;;
71475;SDS011;59286;59.274;17.974;2024-02-28T03:32:57;4.07;;;3.67;;
71475;SDS011;59286;59.274;17.974;2024-02-28T03:35:22;4.25;;;3.85;;
71475;SDS011;59286;59.274;17.974;2024-02-28T03:37:47;5.75;;;4.20;;
71475;SDS011;59286;59.274;17.974;2024-02-28T03:40:13;4.22;;;3.72;;
71475;SDS011;59286;59.274;17.974;2024-02-28T03:42:39;4.10;;;3.70;;
71475;SDS011;59286;59.274;17.974;2024-02-28T03:45:05;4.20;;;3.80;;
71475;SDS011;59286;59.274;17.974;2024-02-28T03:47:31;4.40;;;4.00;;
71475;SDS011;59286;59.274;17.974;2024-02-28T03:49:56;4.45;;;4.05;;
71475;SDS011;59286;59.274;17.974;2024-02-28T03:52:22;4.13;;;3.72;;
71475;SDS011;59286;59.274;17.974;2024-02-28T03:54:48;5.68;;;4.00;;
71475;SDS011;59286;59.274;17.974;2024-02-28T03:57:13;4.43;;;4.03;;
71475;SDS011;59286;59.274;17.974;2024-02-28T03:59:40;4.32;;;3.92;;
71475;SDS011;59286;59.274;17.974;2024-02-28T04:02:06;3.85;;;3.55;;
71475;SDS011;59286;59.274;17.974;2024-02-28T04:04:31;5.03;;;4.43;;
71475;SDS011;59286;59.274;17.974;2024-02-28T04:06:57;6.20;;;4.55;;
71475;SDS011;59286;59.274;17.974;2024-02-28T04:09:22;5.75;;;5.25;;
71475;SDS011;59286;59.274;17.974;2024-02-28T04:11:47;5.05;;;4.55;;
71475;SDS011;59286;59.274;17.974;2024-02-28T04:14:13;5.95;;;5.07;;
71475;SDS011;59286;59.274;17.974;2024-02-28T04:16:42;5.82;;;5.32;;
71475;SDS011;59286;59.274;17.974;2024-02-28T04:19:12;5.70;;;4.63;;
71475;SDS011;59286;59.274;17.974;2024-02-28T04:21:37;5.32;;;4.82;;
71475;SDS011;59286;59.274;17.974;2024-02-28T04:24:03;5.13;;;4.63;;
71475;SDS011;59286;59.274;17.974;2024-02-28T04:26:31;5.40;;;4.53;;
71475;SDS011;59286;59.274;17.974;2024-02-28T04:28:57;4.63;;;4.22;;
71475;SDS011;59286;59.274;17.974;2024-02-28T04:31:22;5.93;;;5.38;;
71475;SDS011;59286;59.274;17.974;2024-02-28T04:33:48;6.38;;;5.00;;
71475;SDS011;59286;59.274;17.974;2024-02-28T04:36:13;5.30;;;4.80;;
71475;SDS011;59286;59.274;17.974;2024-02-28T04:38:40;4.85;;;4.30;;
71475;SDS011;59286;59.274;17.974;2024-02-28T04:41:05;4.95;;;4.32;;
71475;SDS011;59286;59.274;17.974;2024-02-28T04:43:30;5.40;;;4.90;;
71475;SDS011;59286;59.274;17.974;2024-02-28T04:45:56;5.80;;;5.30;;
71475;SDS011;59286;59.274;17.974;2024-02-28T04:48:21;6.30;;;5.70;;
71475;SDS011;59286;59.274;17.974;2024-02-28T04:50:47;4.70;;;4.30;;
71475;SDS011;59286;59.274;17.974;2024-02-28T04:53:12;5.10;;;4.60;;
71475;SDS011;59286;59.274;17.974;2024-02-28T04:55:37;4.50;;;4.07;;
71475;SDS011;59286;59.274;17.974;2024-02-28T04:58:03;6.20;;;5.63;;
71475;SDS011;59286;59.274;17.974;2024-02-28T05:00:28;5.65;;;5.15;;
71475;SDS011;59286;59.274;17.974;2024-02-28T05:02:54;6.40;;;5.00;;
71475;SDS011;59286;59.274;17.974;2024-02-28T05:05:19;5.95;;;5.40;;
71475;SDS011;59286;59.274;17.974;2024-02-28T05:07:44;5.72;;;5.13;;
71475;SDS011;59286;59.274;17.974;2024-02-28T05:10:10;6.82;;;5.55;;
71475;SDS011;59286;59.274;17.974;2024-02-28T05:12:35;5.57;;;5.07;;
71475;SDS011;59286;59.274;17.974;2024-02-28T05:15:01;4.57;;;4.18;;
71475;SDS011;59286;59.274;17.974;2024-02-28T05:17:26;5.40;;;4.90;;
71475;SDS011;59286;59.274;17.974;2024-02-28T05:19:52;5.20;;;4.70;;
71475;SDS011;59286;59.274;17.974;2024-02-28T05:22:17;5.32;;;4.82;;
71475;SDS011;59286;59.274;17.974;2024-02-28T05:24:45;6.57;;;5.07;;
71475;SDS011;59286;59.274;17.974;2024-02-28T05:27:11;5.10;;;4.70;;
71475;SDS011;59286;59.274;17.974;2024-02-28T05:29:36;4.90;;;4.40;;
71475;SDS011;59286;59.274;17.974;2024-02-28T05:32:02;5.72;;;4.50;;
71475;SDS011;59286;59.274;17.974;2024-02-28T05:34:27;5.07;;;4.40;;
71475;SDS011;59286;59.274;17.974;2024-02-28T05:36:53;4.50;;;4.07;;
71475;SDS011;59286;59.274;17.974;2024-02-28T05:39:18;4.85;;;4.35;;
71475;SDS011;59286;59.274;17.974;2024-02-28T05:41:43;4.88;;;4.40;;
71475;SDS011;59286;59.274;17.974;2024-02-28T05:44:09;5.55;;;5.05;;
71475;SDS011;59286;59.274;17.974;2024-02-28T05:46:34;5.25;;;4.65;;
71475;SDS011;59286;59.274;17.974;2024-02-28T05:49:01;4.53;;;4.15;;
71475;SDS011;59286;59.274;17.974;2024-02-28T05:51:27;5.63;;;5.13;;
71475;SDS011;59286;59.274;17.974;2024-02-28T05:53:52;7.50;;;5.65;;
71475;SDS011;59286;59.274;17.974;2024-02-28T05:56:18;5.53;;;4.72;;
71475;SDS011;59286;59.274;17.974;2024-02-28T05:58:45;4.95;;;4.50;;
71475;SDS011;59286;59.274;17.974;2024-02-28T06:01:11;5.00;;;4.55;;
71475;SDS011;59286;59.274;17.974;2024-02-28T06:03:38;4.53;;;4.03;;
71475;SDS011;59286;59.274;17.974;2024-02-28T06:06:03;4.57;;;4.15;;
71475;SDS011;59286;59.274;17.974;2024-02-28T06:08:37;6.40;;;4.53;;
71475;SDS011;59286;59.274;17.974;2024-02-28T06:11:04;5.63;;;4.60;;
71475;SDS011;59286;59.274;17.974;2024-02-28T06:13:31;5.20;;;4.63;;
71475;SDS011;59286;59.274;17.974;2024-02-28T06:15:56;4.60;;;4.15;;
71475;SDS011;59286;59.274;17.974;2024-02-28T06:18:22;5.72;;;4.65;;
71475;SDS011;59286;59.274;17.974;2024-02-28T06:20:51;5.40;;;4.90;;
71475;SDS011;59286;59.274;17.974;2024-02-28T06:23:17;5.85;;;4.57;;
71475;SDS011;59286;59.274;17.974;2024-02-28T06:25:43;6.38;;;5.50;;
71475;SDS011;59286;59.274;17.974;2024-02-28T06:28:08;7.32;;;4.53;;
71475;SDS011;59286;59.274;17.974;2024-02-28T06:30:35;5.63;;;4.97;;
71475;SDS011;59286;59.274;17.974;2024-02-28T06:33:00;5.03;;;4.63;;
71475;SDS011;59286;59.274;17.974;2024-02-28T06:35:26;4.40;;;4.00;;
71475;SDS011;59286;59.274;17.974;2024-02-28T06:37:51;4.85;;;4.35;;
71475;SDS011;59286;59.274;17.974;2024-02-28T06:40:17;4.82;;;4.43;;
71475;SDS011;59286;59.274;17.974;2024-02-28T06:42:42;5.03;;;4.53;;
71475;SDS011;59286;59.274;17.974;2024-02-28T06:45:08;4.05;;;3.55;;
71475;SDS011;59286;59.274;17.974;2024-02-28T06:47:33;4.25;;;3.85;;
71475;SDS011;59286;59.274;17.974;2024-02-28T06:49:59;4.95;;;4.22;;
71475;SDS011;59286;59.274;17.974;2024-02-28T06:52:25;4.40;;;4.00;;
71475;SDS011;59286;59.274;17.974;2024-02-28T06:54:50;6.18;;;4.88;;
71475;SDS011;59286;59.274;17.974;2024-02-28T06:57:16;4.32;;;3.92;;
71475;SDS011;59286;59.274;17.974;2024-02-28T06:59:42;4.43;;;3.53;;
71475;SDS011;59286;59.274;17.974;2024-02-28T07:02:07;4.65;;;3.90;;
71475;SDS011;59286;59.274;17.974;2024-02-28T07:04:32;4.00;;;3.60;;
71475;SDS011;59286;59.274;17.974;2024-02-28T07:06:58;4.05;;;3.65;;
71475;SDS011;59286;59.274;17.974;2024-02-28T07:09:23;6.47;;;4.15;;
71475;SDS011;59286;59.274;17.974;2024-02-28T07:11:51;6.38;;;4.00;;
71475;SDS011;59286;59.274;17.974;2024-02-28T07:14:16;3.72;;;3.42;;
71475;SDS011;59286;59.274;17.974;2024-02-28T07:16:41;5.22;;;3.70;;
71475;SDS011;59286;59.274;17.974;2024-02-28T07:19:07;4.65;;;4.03;;
71475;SDS011;59286;59.274;17.974;2024-02-28T07:21:32;3.63;;;3.05;;
71475;SDS011;59286;59.274;17.974;2024-02-28T07:23:58;4.30;;;3.42;;
71475;SDS011;59286;59.274;17.974;2024-02-28T07:26:23;6.35;;;3.90;;
71475;SDS011;59286;59.274;17.974;2024-02-28T07:28:49;4.22;;;3.55;;
71475;SDS011;59286;59.274;17.974;2024-02-28T07:31:23;3.70;;;3.35;;
71475;SDS011;59286;59.274;17.974;2024-02-28T07:33:49;4.78;;;3.70;;
71475;SDS011;59286;59.274;17.974;2024-02-28T07:36:14;7.38;;;3.53;;
71475;SDS011;59286;59.274;17.974;2024-02-28T07:38:41;3.90;;;3.50;;
71475;SDS011;59286;59.274;17.974;2024-02-28T07:41:07;5.00;;;4.10;;
71475;SDS011;59286;59.274;17.974;2024-02-28T07:43:32;7.93;;;3.92;;
71475;SDS011;59286;59.274;17.974;2024-02-28T07:46:02;4.10;;;3.70;;
71475;SDS011;59286;59.274;17.974;2024-02-28T07:48:31;4.88;;;4.00;;
71475;SDS011;59286;59.274;17.974;2024-02-28T07:50:56;4.45;;;3.55;;
71475;SDS011;59286;59.274;17.974;2024-02-28T07:53:22;7.07;;;3.38;;
71475;SDS011;59286;59.274;17.974;2024-02-28T07:55:47;3.72;;;3.33;;
71475;SDS011;59286;59.274;17.974;2024-02-28T07:58:14;4.22;;;3.47;;
71475;SDS011;59286;59.274;17.974;2024-02-28T08:00:39;4.35;;;3.60;;
71475;SDS011;59286;59.274;17.974;2024-02-28T08:03:06;5.47;;;3.30;;
71475;SDS011;59286;59.274;17.974;2024-02-28T08:05:31;4.70;;;3.60;;
71475;SDS011;59286;59.274;17.974;2024-02-28T08:08:00;4.40;;;3.30;;
71475;SDS011;59286;59.274;17.974;2024-02-28T08:10:26;3.58;;;3.28;;
71475;SDS011;59286;59.274;17.974;2024-02-28T08:12:51;3.67;;;3.22;;
71475;SDS011;59286;59.274;17.974;2024-02-28T08:15:17;5.05;;;3.33;;
71475;SDS011;59286;59.274;17.974;2024-02-28T08:17:42;8.10;;;3.35;;
71475;SDS011;59286;59.274;17.974;2024-02-28T08:20:07;3.55;;;3.17;;
71475;SDS011;59286;59.274;17.974;2024-02-28T08:22:33;3.88;;;3.22;;
71475;SDS011;59286;59.274;17.974;2024-02-28T08:24:59;6.82;;;2.95;;
71475;SDS011;59286;59.274;17.974;2024-02-28T08:27:24;4.93;;;3.00;;
71475;SDS011;59286;59.274;17.974;2024-02-28T08:29:50;3.45;;;3.00;;
71475;SDS011;59286;59.274;17.974;2024-02-28T08:32:16;6.93;;;3.35;;
71475;SDS011;59286;59.274;17.974;2024-02-28T08:34:43;4.70;;;3.17;;
71475;SDS011;59286;59.274;17.974;2024-02-28T08:37:10;2.88;;;2.67;;
71475;SDS011;59286;59.274;17.974;2024-02-28T08:39:35;4.15;;;3.33;;
71475;SDS011;59286;59.274;17.974;2024-02-28T08:42:00;2.90;;;2.70;;
71475;SDS011;59286;59.274;17.974;2024-02-28T08:44:26;4.78;;;3.30;;
71475;SDS011;59286;59.274;17.974;2024-02-28T08:46:51;2.80;;;2.58;;
71475;SDS011;59286;59.274;17.974;2024-02-28T08:49:16;3.38;;;3.08;;
71475;SDS011;59286;59.274;17.974;2024-02-28T08:51:42;3.90;;;2.53;;
71475;SDS011;59286;59.274;17.974;2024-02-28T08:54:07;4.07;;;2.65;;
71475;SDS011;59286;59.274;17.974;2024-02-28T08:56:33;3.47;;;3.13;;
71475;SDS011;59286;59.274;17.974;2024-02-28T08:58:59;3.20;;;2.80;;
71475;SDS011;59286;59.274;17.974;2024-02-28T09:01:24;4.85;;;2.90;;
71475;SDS011;59286;59.274;17.974;2024-02-28T09:03:49;4.25;;;2.65;;
71475;SDS011;59286;59.274;17.974;2024-02-28T09:06:15;2.63;;;2.28;;
71475;SDS011;59286;59.274;17.974;2024-02-28T09:08:40;5.35;;;2.80;;
71475;SDS011;59286;59.274;17.974;2024-02-28T09:11:05;3.63;;;2.65;;
71475;SDS011;59286;59.274;17.974;2024-02-28T09:13:31;3.38;;;2.47;;
71475;SDS011;59286;59.274;17.974;2024-02-28T09:15:56;4.05;;;2.63;;
71475;SDS011;59286;59.274;17.974;2024-02-28T09:18:22;3.33;;;2.60;;
71475;SDS011;59286;59.274;17.974;2024-02-28T09:20:48;5.80;;;2.40;;
71475;SDS011;59286;59.274;17.974;2024-02-28T09:23:13;2.63;;;2.25;;
71475;SDS011;59286;59.274;17.974;2024-02-28T09:25:39;5.20;;;2.67;;
71475;SDS011;59286;59.274;17.974;2024-02-28T09:28:05;3.17;;;2.67;;
71475;SDS011;59286;59.274;17.974;2024-02-28T09:30:30;5.85;;;2.47;;
71475;SDS011;59286;59.274;17.974;2024-02-28T09:32:56;4.63;;;2.58;;
71475;SDS011;59286;59.274;17.974;2024-02-28T09:35:21;4.65;;;2.60;;
71475;SDS011;59286;59.274;17.974;2024-02-28T09:37:47;4.43;;;2.78;;
71475;SDS011;59286;59.274;17.974;2024-02-28T09:40:12;2.63;;;2.08;;
71475;SDS011;59286;59.274;17.974;2024-02-28T09:42:37;4.07;;;2.47;;
71475;SDS011;59286;59.274;17.974;2024-02-28T09:45:03;4.53;;;2.47;;
71475;SDS011;59286;59.274;17.974;2024-02-28T09:47:29;7.85;;;2.53;;
71475;SDS011;59286;59.274;17.974;2024-02-28T09:49:55;3.75;;;2.45;;
71475;SDS011;59286;59.274;17.974;2024-02-28T09:52:26;2.88;;;2.33;;
71475;SDS011;59286;59.274;17.974;2024-02-28T09:54:52;3.55;;;2.40;;
71475;SDS011;59286;59.274;17.974;2024-02-28T09:57:18;4.13;;;2.58;;
71475;SDS011;59286;59.274;17.974;2024-02-28T09:59:44;4.65;;;2.47;;
71475;SDS011;59286;59.274;17.974;2024-02-28T10:02:10;4.22;;;2.33;;
71475;SDS011;59286;59.274;17.974;2024-02-28T10:04:37;4.63;;;2.35;;
71475;SDS011;59286;59.274;17.974;2024-02-28T10:07:15;2.20;;;2.00;;
71475;SDS011;59286;59.274;17.974;2024-02-28T10:09:42;4.15;;;2.42;;
71475;SDS011;59286;59.274;17.974;2024-02-28T10:12:07;2.60;;;2.40;;
71475;SDS011;59286;59.274;17.974;2024-02-28T10:14:33;2.78;;;2.30;;
71475;SDS011;59286;59.274;17.974;2024-02-28T10:16:59;4.10;;;2.33;;
71475;SDS011;59286;59.274;17.974;2024-02-28T10:19:24;3.72;;;2.45;;
71475;SDS011;59286;59.274;17.974;2024-02-28T10:21:50;3.42;;;2.28;;
71475;SDS011;59286;59.274;17.974;2024-02-28T10:24:15;2.75;;;2.30;;
71475;SDS011;59286;59.274;17.974;2024-02-28T10:26:41;3.00;;;2.53;;
71475;SDS011;59286;59.274;17.974;2024-02-28T10:29:10;2.30;;;2.10;;
71475;SDS011;59286;59.274;17.974;2024-02-28T10:31:37;2.92;;;2.40;;
71475;SDS011;59286;59.274;17.974;2024-02-28T10:34:02;3.78;;;2.10;;
71475;SDS011;59286;59.274;17.974;2024-02-28T10:36:29;2.85;;;2.50;;
71475;SDS011;59286;59.274;17.974;2024-02-28T10:38:57;2.35;;;2.15;;
71475;SDS011;59286;59.274;17.974;2024-02-28T10:41:24;2.60;;;2.28;;
71475;SDS011;59286;59.274;17.974;2024-02-28T10:43:51;3.10;;;2.13;;
71475;SDS011;59286;59.274;17.974;2024-02-28T10:46:19;4.07;;;2.28;;
71475;SDS011;59286;59.274;17.974;2024-02-28T10:48:46;3.85;;;2.10;;
71475;SDS011;59286;59.274;17.974;2024-02-28T10:51:16;3.03;;;2.03;;
71475;SDS011;59286;59.274;17.974;2024-02-28T10:53:47;2.90;;;2.30;;
71475;SDS011;59286;59.274;17.974;2024-02-28T10:56:15;3.00;;;2.17;;
71475;SDS011;59286;59.274;17.974;2024-02-28T10:58:50;3.00;;;2.03;;
71475;SDS011;59286;59.274;17.974;2024-02-28T11:01:17;2.55;;;2.33;;
71475;SDS011;59286;59.274;17.974;2024-02-28T11:03:43;2.53;;;2.25;;
71475;SDS011;59286;59.274;17.974;2024-02-28T11:06:19;2.30;;;2.05;;
71475;SDS011;59286;59.274;17.974;2024-02-28T11:08:49;3.20;;;1.95;;
71475;SDS011;59286;59.274;17.974;2024-02-28T11:11:19;2.00;;;1.90;;
71475;SDS011;59286;59.274;17.974;2024-02-28T11:13:52;3.22;;;2.22;;
71475;SDS011;59286;59.274;17.974;2024-02-28T11:16:31;2.15;;;1.75;;
71475;SDS011;59286;59.274;17.974;2024-02-28T11:18:59;3.60;;;2.08;;
71475;SDS011;59286;59.274;17.974;2024-02-28T11:21:26;2.95;;;2.45;;
71475;SDS011;59286;59.274;17.974;2024-02-28T11:23:57;3.50;;;2.20;;
71475;SDS011;59286;59.274;17.974;2024-02-28T11:26:23;3.95;;;2.40;;
71475;SDS011;59286;59.274;17.974;2024-02-28T11:28:49;3.80;;;2.70;;
71475;SDS011;59286;59.274;17.974;2024-02-28T11:31:15;2.60;;;2.38;;
71475;SDS011;59286;59.274;17.974;2024-02-28T11:33:41;2.58;;;2.30;;
71475;SDS011;59286;59.274;17.974;2024-02-28T11:36:06;5.13;;;2.50;;
71475;SDS011;59286;59.274;17.974;2024-02-28T11:38:34;4.10;;;2.70;;
71475;SDS011;59286;59.274;17.974;2024-02-28T11:41:03;4.70;;;3.00;;
71475;SDS011;59286;59.274;17.974;2024-02-28T11:43:30;3.97;;;3.20;;
71475;SDS011;59286;59.274;17.974;2024-02-28T11:45:56;3.00;;;2.80;;
71475;SDS011;59286;59.274;17.974;2024-02-28T11:48:22;6.78;;;2.90;;
71475;SDS011;59286;59.274;17.974;2024-02-28T11:50:47;3.58;;;3.00;;
71475;SDS011;59286;59.274;17.974;2024-02-28T11:53:13;3.15;;;2.65;;
71475;SDS011;59286;59.274;17.974;2024-02-28T11:55:38;3.20;;;2.75;;
71475;SDS011;59286;59.274;17.974;2024-02-28T11:58:09;2.75;;;2.50;;
71475;SDS011;59286;59.274;17.974;2024-02-28T12:00:34;3.85;;;3.03;;
71475;SDS011;59286;59.274;17.974;2024-02-28T12:03:10;4.78;;;2.50;;
71475;SDS011;59286;59.274;17.974;2024-02-28T12:05:42;5.45;;;3.03;;
71475;SDS011;59286;59.274;17.974;2024-02-28T12:08:09;5.93;;;2.85;;
71475;SDS011;59286;59.274;17.974;2024-02-28T12:10:35;3.45;;;2.90;;
71475;SDS011;59286;59.274;17.974;2024-02-28T12:13:01;2.90;;;2.63;;
71475;SDS011;59286;59.274;17.974;2024-02-28T12:15:28;3.55;;;2.60;;
71475;SDS011;59286;59.274;17.974;2024-02-28T12:17:54;2.63;;;2.42;;
71475;SDS011;59286;59.274;17.974;2024-02-28T12:20:19;3.50;;;2.58;;
71475;SDS011;59286;59.274;17.974;2024-02-28T12:22:45;4.28;;;2.90;;
71475;SDS011;59286;59.274;17.974;2024-02-28T12:25:10;3.58;;;2.67;;
71475;SDS011;59286;59.274;17.974;2024-02-28T12:27:36;3.17;;;2.85;;
71475;SDS011;59286;59.274;17.974;2024-02-28T12:30:02;3.10;;;2.80;;
71475;SDS011;59286;59.274;17.974;2024-02-28T12:32:27;3.70;;;3.08;;
71475;SDS011;59286;59.274;17.974;2024-02-28T12:34:52;3.72;;;2.75;;
71475;SDS011;59286;59.274;17.974;2024-02-28T12:37:18;3.33;;;2.92;;
71475;SDS011;59286;59.274;17.974;2024-02-28T12:39:44;3.85;;;3.45;;
71475;SDS011;59286;59.274;17.974;2024-02-28T12:42:09;4.43;;;2.92;;
71475;SDS011;59286;59.274;17.974;2024-02-28T12:44:35;4.70;;;3.90;;
71475;SDS011;59286;59.274;17.974;2024-02-28T12:47:01;3.38;;;3.08;;
71475;SDS011;59286;59.274;17.974;2024-02-28T12:49:26;4.15;;;3.40;;
71475;SDS011;59286;59.274;17.974;2024-02-28T12:51:52;3.53;;;3.03;;
71475;SDS011;59286;59.274;17.974;2024-02-28T12:54:17;3.95;;;3.55;;
71475;SDS011;59286;59.274;17.974;2024-02-28T12:56:46;5.18;;;2.83;;
71475;SDS011;59286;59.274;17.974;2024-02-28T12:59:12;3.40;;;3.10;;
71475;SDS011;59286;59.274;17.974;2024-02-28T13:01:38;5.22;;;2.97;;
71475;SDS011;59286;59.274;17.974;2024-02-28T13:04:04;3.53;;;3.10;;
71475;SDS011;59286;59.274;17.974;2024-02-28T13:06:29;3.60;;;2.95;;
71475;SDS011;59286;59.274;17.974;2024-02-28T13:08:54;3.78;;;2.90;;
71475;SDS011;59286;59.274;17.974;2024-02-28T13:11:20;3.83;;;3.30;;
71475;SDS011;59286;59.274;17.974;2024-02-28T13:13:48;7.03;;;3.42;;
71475;SDS011;59286;59.274;17.974;2024-02-28T13:16:14;3.97;;;3.08;;
71475;SDS011;59286;59.274;17.974;2024-02-28T13:18:41;3.88;;;3.05;;
71475;SDS011;59286;59.274;17.974;2024-02-28T13:21:07;3.25;;;2.95;;
71475;SDS011;59286;59.274;17.974;2024-02-28T13:23:33;4.20;;;3.15;;
71475;SDS011;59286;59.274;17.974;2024-02-28T13:25:59;3.35;;;3.03;;
71475;SDS011;59286;59.274;17.974;2024-02-28T13:28:26;3.35;;;2.60;;
71475;SDS011;59286;59.274;17.974;2024-02-28T13:30:58;3.05;;;2.75;;
71475;SDS011;59286;59.274;17.974;2024-02-28T13:33:27;3.05;;;2.75;;
71475;SDS011;59286;59.274;17.974;2024-02-28T13:35:53;3.30;;;2.95;;
71475;SDS011;59286;59.274;17.974;2024-02-28T13:38:19;3.00;;;2.70;;
71475;SDS011;59286;59.274;17.974;2024-02-28T13:40:48;3.30;;;3.00;;
71475;SDS011;59286;59.274;17.974;2024-02-28T13:43:14;6.22;;;3.30;;
71475;SDS011;59286;59.274;17.974;2024-02-28T13:45:47;4.68;;;2.70;;
71475;SDS011;59286;59.274;17.974;2024-02-28T13:48:21;4.35;;;2.03;;
71475;SDS011;59286;59.274;17.974;2024-02-28T13:50:50;2.72;;;2.42;;
71475;SDS011;59286;59.274;17.974;2024-02-28T13:53:15;2.95;;;2.40;;
71475;SDS011;59286;59.274;17.974;2024-02-28T13:55:44;2.47;;;2.28;;
71475;SDS011;59286;59.274;17.974;2024-02-28T13:58:11;4.50;;;2.20;;
71475;SDS011;59286;59.274;17.974;2024-02-28T14:00:37;2.72;;;2.00;;
71475;SDS011;59286;59.274;17.974;2024-02-28T14:03:03;3.97;;;2.20;;
71475;SDS011;59286;59.274;17.974;2024-02-28T14:05:29;6.85;;;2.28;;
71475;SDS011;59286;59.274;17.974;2024-02-28T14:07:55;2.10;;;1.83;;
71475;SDS011;59286;59.274;17.974;2024-02-28T14:10:22;1.65;;;1.55;;
71475;SDS011;59286;59.274;17.974;2024-02-28T14:12:48;1.95;;;1.70;;
71475;SDS011;59286;59.274;17.974;2024-02-28T14:15:13;2.92;;;2.00;;
71475;SDS011;59286;59.274;17.974;2024-02-28T14:17:39;1.88;;;1.63;;
71475;SDS011;59286;59.274;17.974;2024-02-28T14:20:05;1.90;;;1.60;;
71475;SDS011;59286;59.274;17.974;2024-02-28T14:22:31;1.75;;;1.65;;
71475;SDS011;59286;59.274;17.974;2024-02-28T14:24:57;2.20;;;1.63;;
71475;SDS011;59286;59.274;17.974;2024-02-28T14:27:24;2.17;;;1.60;;